Holdrege, Nebraska
Current Conditions -  °F | °C
As of 2:15 AM on Tuesday 27 Jan 2015 (Local Time) from KHDE Reporting Station
Clear Clear  
Wind Chill: 35°   Ceiling: Unl
Heat Index: 35°   Visibility: 10mi
Dew Point: 26°   Wind: 0mph
Humidity: 72%   Direction: NA
Pressure: 30.06"   Gusts: NA
Location:  40.44°N, 99.37°W
Report Text: KHDE 270815Z AUTO 00000KT 10SM CLR 02/M03 A3006 RMK AO2 T00151031
Loading
Personal Weather Stations






























Interactive Weather Map New forecast layout! Learn more

10-Day Weather Forecast

Advertisements
Track Severe Weather on mobile